sensor_id;sensor_type;location;lat;lon;timestamp;P1;durP1;ratioP1;P2;durP2;ratioP2
59052;SDS011;44843;44.728;10.396;2023-12-20T00:00:38;5.25;;;3.40;;
59052;SDS011;44843;44.728;10.396;2023-12-20T00:03:03;4.95;;;2.88;;
59052;SDS011;44843;44.728;10.396;2023-12-20T00:05:29;3.30;;;2.45;;
59052;SDS011;44843;44.728;10.396;2023-12-20T00:07:57;5.35;;;2.70;;
59052;SDS011;44843;44.728;10.396;2023-12-20T00:10:22;4.65;;;2.33;;
59052;SDS011;44843;44.728;10.396;2023-12-20T00:12:47;6.95;;;2.65;;
59052;SDS011;44843;44.728;10.396;2023-12-20T00:15:12;3.50;;;2.65;;
59052;SDS011;44843;44.728;10.396;2023-12-20T00:17:37;4.70;;;2.70;;
59052;SDS011;44843;44.728;10.396;2023-12-20T00:20:03;4.82;;;2.90;;
59052;SDS011;44843;44.728;10.396;2023-12-20T00:22:28;4.32;;;2.58;;
59052;SDS011;44843;44.728;10.396;2023-12-20T00:24:53;4.90;;;2.40;;
59052;SDS011;44843;44.728;10.396;2023-12-20T00:27:18;5.32;;;2.10;;
59052;SDS011;44843;44.728;10.396;2023-12-20T00:29:44;5.82;;;2.25;;
59052;SDS011;44843;44.728;10.396;2023-12-20T00:32:12;3.50;;;2.13;;
59052;SDS011;44843;44.728;10.396;2023-12-20T00:34:38;2.72;;;1.75;;
59052;SDS011;44843;44.728;10.396;2023-12-20T00:37:03;3.67;;;2.08;;
59052;SDS011;44843;44.728;10.396;2023-12-20T00:39:28;5.28;;;2.47;;
59052;SDS011;44843;44.728;10.396;2023-12-20T00:41:53;7.60;;;3.17;;
59052;SDS011;44843;44.728;10.396;2023-12-20T00:44:19;4.85;;;2.55;;
59052;SDS011;44843;44.728;10.396;2023-12-20T00:46:44;3.30;;;1.98;;
59052;SDS011;44843;44.728;10.396;2023-12-20T00:49:09;5.63;;;2.60;;
59052;SDS011;44843;44.728;10.396;2023-12-20T00:51:34;3.90;;;2.40;;
59052;SDS011;44843;44.728;10.396;2023-12-20T00:53:59;4.57;;;2.20;;
59052;SDS011;44843;44.728;10.396;2023-12-20T00:56:25;6.32;;;2.65;;
59052;SDS011;44843;44.728;10.396;2023-12-20T00:58:50;3.70;;;2.42;;
59052;SDS011;44843;44.728;10.396;2023-12-20T01:01:15;4.18;;;2.45;;
59052;SDS011;44843;44.728;10.396;2023-12-20T01:03:40;3.03;;;2.33;;
59052;SDS011;44843;44.728;10.396;2023-12-20T01:06:05;3.92;;;2.47;;
59052;SDS011;44843;44.728;10.396;2023-12-20T01:08:31;4.38;;;2.35;;
59052;SDS011;44843;44.728;10.396;2023-12-20T01:10:56;8.35;;;2.17;;
59052;SDS011;44843;44.728;10.396;2023-12-20T01:13:21;4.45;;;2.35;;
59052;SDS011;44843;44.728;10.396;2023-12-20T01:15:46;6.53;;;2.42;;
59052;SDS011;44843;44.728;10.396;2023-12-20T01:18:13;3.80;;;2.15;;
59052;SDS011;44843;44.728;10.396;2023-12-20T01:20:38;4.97;;;2.20;;
59052;SDS011;44843;44.728;10.396;2023-12-20T01:23:03;5.68;;;2.30;;
59052;SDS011;44843;44.728;10.396;2023-12-20T01:25:28;4.03;;;2.22;;
59052;SDS011;44843;44.728;10.396;2023-12-20T01:27:53;3.55;;;2.30;;
59052;SDS011;44843;44.728;10.396;2023-12-20T01:30:19;4.38;;;2.65;;
59052;SDS011;44843;44.728;10.396;2023-12-20T01:32:44;6.20;;;2.70;;
59052;SDS011;44843;44.728;10.396;2023-12-20T01:35:09;5.47;;;2.47;;
59052;SDS011;44843;44.728;10.396;2023-12-20T01:37:34;2.00;;;1.80;;
59052;SDS011;44843;44.728;10.396;2023-12-20T01:40:00;3.83;;;2.22;;
59052;SDS011;44843;44.728;10.396;2023-12-20T01:42:25;3.70;;;2.10;;
59052;SDS011;44843;44.728;10.396;2023-12-20T01:44:50;3.13;;;2.05;;
59052;SDS011;44843;44.728;10.396;2023-12-20T01:47:15;5.10;;;2.55;;
59052;SDS011;44843;44.728;10.396;2023-12-20T01:49:41;4.00;;;2.13;;
59052;SDS011;44843;44.728;10.396;2023-12-20T01:52:06;5.28;;;2.28;;
59052;SDS011;44843;44.728;10.396;2023-12-20T01:54:32;4.85;;;2.33;;
59052;SDS011;44843;44.728;10.396;2023-12-20T01:56:58;4.43;;;2.25;;
59052;SDS011;44843;44.728;10.396;2023-12-20T01:59:24;4.55;;;2.13;;
59052;SDS011;44843;44.728;10.396;2023-12-20T02:01:49;11.00;;;3.67;;
59052;SDS011;44843;44.728;10.396;2023-12-20T02:04:14;10.73;;;4.38;;
59052;SDS011;44843;44.728;10.396;2023-12-20T02:06:40;8.00;;;3.30;;
59052;SDS011;44843;44.728;10.396;2023-12-20T02:09:05;3.35;;;1.80;;
59052;SDS011;44843;44.728;10.396;2023-12-20T02:11:31;6.22;;;2.67;;
59052;SDS011;44843;44.728;10.396;2023-12-20T02:13:57;3.92;;;2.25;;
59052;SDS011;44843;44.728;10.396;2023-12-20T02:16:22;3.22;;;2.10;;
59052;SDS011;44843;44.728;10.396;2023-12-20T02:18:47;6.88;;;2.03;;
59052;SDS011;44843;44.728;10.396;2023-12-20T02:21:12;6.00;;;2.70;;
59052;SDS011;44843;44.728;10.396;2023-12-20T02:23:38;3.92;;;2.22;;
59052;SDS011;44843;44.728;10.396;2023-12-20T02:26:03;4.32;;;2.28;;
59052;SDS011;44843;44.728;10.396;2023-12-20T02:28:29;2.78;;;1.80;;
59052;SDS011;44843;44.728;10.396;2023-12-20T02:30:55;2.50;;;1.70;;
59052;SDS011;44843;44.728;10.396;2023-12-20T02:33:20;2.88;;;2.30;;
59052;SDS011;44843;44.728;10.396;2023-12-20T02:35:45;2.10;;;1.48;;
59052;SDS011;44843;44.728;10.396;2023-12-20T02:38:10;3.28;;;1.90;;
59052;SDS011;44843;44.728;10.396;2023-12-20T02:40:35;3.47;;;1.80;;
59052;SDS011;44843;44.728;10.396;2023-12-20T02:43:01;3.83;;;1.88;;
59052;SDS011;44843;44.728;10.396;2023-12-20T02:45:26;2.47;;;2.13;;
59052;SDS011;44843;44.728;10.396;2023-12-20T02:47:52;3.88;;;1.98;;
59052;SDS011;44843;44.728;10.396;2023-12-20T02:50:17;2.90;;;2.00;;
59052;SDS011;44843;44.728;10.396;2023-12-20T02:52:44;2.13;;;1.48;;
59052;SDS011;44843;44.728;10.396;2023-12-20T02:55:09;1.98;;;1.52;;
59052;SDS011;44843;44.728;10.396;2023-12-20T02:57:34;3.22;;;1.52;;
59052;SDS011;44843;44.728;10.396;2023-12-20T03:00:01;4.30;;;1.40;;
59052;SDS011;44843;44.728;10.396;2023-12-20T03:02:26;3.03;;;1.40;;
59052;SDS011;44843;44.728;10.396;2023-12-20T03:04:51;3.50;;;1.35;;
59052;SDS011;44843;44.728;10.396;2023-12-20T03:07:16;3.45;;;1.50;;
59052;SDS011;44843;44.728;10.396;2023-12-20T03:09:42;2.58;;;1.42;;
59052;SDS011;44843;44.728;10.396;2023-12-20T03:12:07;2.67;;;1.48;;
59052;SDS011;44843;44.728;10.396;2023-12-20T03:14:32;2.13;;;1.92;;
59052;SDS011;44843;44.728;10.396;2023-12-20T03:16:57;5.07;;;2.13;;
59052;SDS011;44843;44.728;10.396;2023-12-20T03:19:23;3.22;;;1.83;;
59052;SDS011;44843;44.728;10.396;2023-12-20T03:21:48;4.35;;;2.05;;
59052;SDS011;44843;44.728;10.396;2023-12-20T03:24:13;3.40;;;2.30;;
59052;SDS011;44843;44.728;10.396;2023-12-20T03:26:38;3.63;;;2.03;;
59052;SDS011;44843;44.728;10.396;2023-12-20T03:29:04;3.03;;;2.15;;
59052;SDS011;44843;44.728;10.396;2023-12-20T03:31:29;5.72;;;2.50;;
59052;SDS011;44843;44.728;10.396;2023-12-20T03:33:54;5.53;;;2.30;;
59052;SDS011;44843;44.728;10.396;2023-12-20T03:36:20;3.65;;;1.92;;
59052;SDS011;44843;44.728;10.396;2023-12-20T03:38:45;4.15;;;2.15;;
59052;SDS011;44843;44.728;10.396;2023-12-20T03:41:10;2.67;;;1.95;;
59052;SDS011;44843;44.728;10.396;2023-12-20T03:43:36;3.90;;;2.97;;
59052;SDS011;44843;44.728;10.396;2023-12-20T03:46:01;3.33;;;2.28;;
59052;SDS011;44843;44.728;10.396;2023-12-20T03:48:28;4.45;;;1.92;;
59052;SDS011;44843;44.728;10.396;2023-12-20T03:50:53;2.42;;;1.88;;
59052;SDS011;44843;44.728;10.396;2023-12-20T03:53:19;3.20;;;2.13;;
59052;SDS011;44843;44.728;10.396;2023-12-20T03:55:44;4.55;;;2.30;;
59052;SDS011;44843;44.728;10.396;2023-12-20T03:58:09;4.43;;;2.53;;
59052;SDS011;44843;44.728;10.396;2023-12-20T04:00:34;4.80;;;2.08;;
59052;SDS011;44843;44.728;10.396;2023-12-20T04:03:00;4.85;;;2.38;;
59052;SDS011;44843;44.728;10.396;2023-12-20T04:05:25;2.90;;;1.67;;
59052;SDS011;44843;44.728;10.396;2023-12-20T04:07:50;4.38;;;2.58;;
59052;SDS011;44843;44.728;10.396;2023-12-20T04:10:15;3.72;;;2.35;;
59052;SDS011;44843;44.728;10.396;2023-12-20T04:12:41;4.15;;;2.67;;
59052;SDS011;44843;44.728;10.396;2023-12-20T04:15:06;5.45;;;2.88;;
59052;SDS011;44843;44.728;10.396;2023-12-20T04:17:34;2.08;;;1.88;;
59052;SDS011;44843;44.728;10.396;2023-12-20T04:19:59;4.72;;;2.33;;
59052;SDS011;44843;44.728;10.396;2023-12-20T04:22:24;2.72;;;1.98;;
59052;SDS011;44843;44.728;10.396;2023-12-20T04:24:50;2.45;;;1.80;;
59052;SDS011;44843;44.728;10.396;2023-12-20T04:27:15;2.85;;;2.08;;
59052;SDS011;44843;44.728;10.396;2023-12-20T04:29:40;2.15;;;1.65;;
59052;SDS011;44843;44.728;10.396;2023-12-20T04:32:05;3.65;;;2.08;;
59052;SDS011;44843;44.728;10.396;2023-12-20T04:34:31;4.15;;;2.13;;
59052;SDS011;44843;44.728;10.396;2023-12-20T04:36:56;6.20;;;2.17;;
59052;SDS011;44843;44.728;10.396;2023-12-20T04:39:21;2.42;;;1.73;;
59052;SDS011;44843;44.728;10.396;2023-12-20T04:41:46;3.28;;;1.98;;
59052;SDS011;44843;44.728;10.396;2023-12-20T04:44:12;3.00;;;2.10;;
59052;SDS011;44843;44.728;10.396;2023-12-20T04:46:38;3.45;;;2.35;;
59052;SDS011;44843;44.728;10.396;2023-12-20T04:49:03;3.72;;;2.35;;
59052;SDS011;44843;44.728;10.396;2023-12-20T04:51:28;4.47;;;2.45;;
59052;SDS011;44843;44.728;10.396;2023-12-20T04:53:53;4.63;;;2.30;;
59052;SDS011;44843;44.728;10.396;2023-12-20T04:56:19;6.80;;;2.47;;
59052;SDS011;44843;44.728;10.396;2023-12-20T04:58:44;3.88;;;2.25;;
59052;SDS011;44843;44.728;10.396;2023-12-20T05:01:09;3.67;;;2.45;;
59052;SDS011;44843;44.728;10.396;2023-12-20T05:03:35;4.38;;;2.85;;
59052;SDS011;44843;44.728;10.396;2023-12-20T05:06:00;5.53;;;2.70;;
59052;SDS011;44843;44.728;10.396;2023-12-20T05:08:25;5.55;;;2.92;;
59052;SDS011;44843;44.728;10.396;2023-12-20T05:10:54;5.30;;;2.55;;
59052;SDS011;44843;44.728;10.396;2023-12-20T05:13:19;4.43;;;2.72;;
59052;SDS011;44843;44.728;10.396;2023-12-20T05:15:44;5.03;;;2.78;;
59052;SDS011;44843;44.728;10.396;2023-12-20T05:18:10;6.43;;;3.15;;
59052;SDS011;44843;44.728;10.396;2023-12-20T05:20:35;6.15;;;2.90;;
59052;SDS011;44843;44.728;10.396;2023-12-20T05:23:00;7.15;;;3.67;;
59052;SDS011;44843;44.728;10.396;2023-12-20T05:25:25;7.05;;;4.05;;
59052;SDS011;44843;44.728;10.396;2023-12-20T05:27:51;6.72;;;3.83;;
59052;SDS011;44843;44.728;10.396;2023-12-20T05:30:16;12.10;;;4.60;;
59052;SDS011;44843;44.728;10.396;2023-12-20T05:32:41;6.18;;;3.70;;
59052;SDS011;44843;44.728;10.396;2023-12-20T05:35:06;8.02;;;3.60;;
59052;SDS011;44843;44.728;10.396;2023-12-20T05:37:32;7.13;;;4.28;;
59052;SDS011;44843;44.728;10.396;2023-12-20T05:39:57;11.80;;;5.57;;
59052;SDS011;44843;44.728;10.396;2023-12-20T05:42:22;7.15;;;4.65;;
59052;SDS011;44843;44.728;10.396;2023-12-20T05:44:48;8.13;;;4.80;;
59052;SDS011;44843;44.728;10.396;2023-12-20T05:47:13;6.00;;;3.70;;
59052;SDS011;44843;44.728;10.396;2023-12-20T05:49:38;7.65;;;3.40;;
59052;SDS011;44843;44.728;10.396;2023-12-20T05:52:03;4.97;;;3.25;;
59052;SDS011;44843;44.728;10.396;2023-12-20T05:54:29;4.20;;;3.05;;
59052;SDS011;44843;44.728;10.396;2023-12-20T05:56:54;4.72;;;2.67;;
59052;SDS011;44843;44.728;10.396;2023-12-20T05:59:19;11.25;;;4.22;;
59052;SDS011;44843;44.728;10.396;2023-12-20T06:01:45;6.70;;;3.38;;
59052;SDS011;44843;44.728;10.396;2023-12-20T06:04:10;6.47;;;3.00;;
59052;SDS011;44843;44.728;10.396;2023-12-20T06:06:40;3.88;;;2.40;;
59052;SDS011;44843;44.728;10.396;2023-12-20T06:09:05;6.10;;;2.70;;
59052;SDS011;44843;44.728;10.396;2023-12-20T06:11:30;6.93;;;3.60;;
59052;SDS011;44843;44.728;10.396;2023-12-20T06:13:55;8.52;;;3.33;;
59052;SDS011;44843;44.728;10.396;2023-12-20T06:16:20;6.50;;;3.95;;
59052;SDS011;44843;44.728;10.396;2023-12-20T06:18:46;6.18;;;3.72;;
59052;SDS011;44843;44.728;10.396;2023-12-20T06:21:11;6.95;;;4.07;;
59052;SDS011;44843;44.728;10.396;2023-12-20T06:23:38;6.15;;;3.88;;
59052;SDS011;44843;44.728;10.396;2023-12-20T06:26:03;7.10;;;3.88;;
59052;SDS011;44843;44.728;10.396;2023-12-20T06:28:28;9.13;;;4.07;;
59052;SDS011;44843;44.728;10.396;2023-12-20T06:30:53;8.30;;;3.97;;
59052;SDS011;44843;44.728;10.396;2023-12-20T06:33:20;6.75;;;4.05;;
59052;SDS011;44843;44.728;10.396;2023-12-20T06:35:46;9.32;;;4.78;;
59052;SDS011;44843;44.728;10.396;2023-12-20T06:38:11;9.13;;;4.90;;
59052;SDS011;44843;44.728;10.396;2023-12-20T06:40:36;14.25;;;4.50;;
59052;SDS011;44843;44.728;10.396;2023-12-20T06:43:02;11.02;;;4.50;;
59052;SDS011;44843;44.728;10.396;2023-12-20T06:45:27;12.65;;;5.97;;
59052;SDS011;44843;44.728;10.396;2023-12-20T06:47:52;15.32;;;7.07;;
59052;SDS011;44843;44.728;10.396;2023-12-20T06:50:17;17.05;;;7.35;;
59052;SDS011;44843;44.728;10.396;2023-12-20T06:52:42;15.90;;;6.72;;
59052;SDS011;44843;44.728;10.396;2023-12-20T06:55:08;10.60;;;5.40;;
59052;SDS011;44843;44.728;10.396;2023-12-20T06:57:33;9.48;;;5.45;;
59052;SDS011;44843;44.728;10.396;2023-12-20T06:59:58;8.25;;;5.40;;
59052;SDS011;44843;44.728;10.396;2023-12-20T07:02:23;8.73;;;4.30;;
59052;SDS011;44843;44.728;10.396;2023-12-20T07:04:49;8.07;;;4.63;;
59052;SDS011;44843;44.728;10.396;2023-12-20T07:07:14;7.88;;;3.95;;
59052;SDS011;44843;44.728;10.396;2023-12-20T07:09:40;7.43;;;4.40;;
59052;SDS011;44843;44.728;10.396;2023-12-20T07:12:07;7.13;;;4.35;;
59052;SDS011;44843;44.728;10.396;2023-12-20T07:14:33;9.70;;;4.78;;
59052;SDS011;44843;44.728;10.396;2023-12-20T07:16:58;5.40;;;4.25;;
59052;SDS011;44843;44.728;10.396;2023-12-20T07:19:23;10.75;;;4.97;;
59052;SDS011;44843;44.728;10.396;2023-12-20T07:21:49;7.18;;;4.20;;
59052;SDS011;44843;44.728;10.396;2023-12-20T07:24:14;6.68;;;3.83;;
59052;SDS011;44843;44.728;10.396;2023-12-20T07:26:39;7.35;;;5.18;;
59052;SDS011;44843;44.728;10.396;2023-12-20T07:29:05;10.18;;;4.90;;
59052;SDS011;44843;44.728;10.396;2023-12-20T07:31:30;10.10;;;5.68;;
59052;SDS011;44843;44.728;10.396;2023-12-20T07:33:55;8.32;;;5.03;;
59052;SDS011;44843;44.728;10.396;2023-12-20T07:36:21;11.13;;;5.68;;
59052;SDS011;44843;44.728;10.396;2023-12-20T07:38:46;10.63;;;5.82;;
59052;SDS011;44843;44.728;10.396;2023-12-20T07:41:11;10.30;;;5.63;;
59052;SDS011;44843;44.728;10.396;2023-12-20T07:43:37;13.85;;;6.15;;
59052;SDS011;44843;44.728;10.396;2023-12-20T07:46:05;11.57;;;6.45;;
59052;SDS011;44843;44.728;10.396;2023-12-20T07:48:31;12.27;;;6.35;;
59052;SDS011;44843;44.728;10.396;2023-12-20T07:50:56;11.65;;;6.38;;
59052;SDS011;44843;44.728;10.396;2023-12-20T07:53:21;11.23;;;6.40;;
59052;SDS011;44843;44.728;10.396;2023-12-20T07:55:46;11.82;;;6.47;;
59052;SDS011;44843;44.728;10.396;2023-12-20T07:58:11;14.57;;;6.53;;
59052;SDS011;44843;44.728;10.396;2023-12-20T08:00:37;16.10;;;8.70;;
59052;SDS011;44843;44.728;10.396;2023-12-20T08:03:03;19.20;;;8.75;;
59052;SDS011;44843;44.728;10.396;2023-12-20T08:05:28;18.70;;;9.80;;
59052;SDS011;44843;44.728;10.396;2023-12-20T08:07:53;25.60;;;11.70;;
59052;SDS011;44843;44.728;10.396;2023-12-20T08:10:19;21.05;;;9.70;;
59052;SDS011;44843;44.728;10.396;2023-12-20T08:12:44;20.05;;;10.73;;
59052;SDS011;44843;44.728;10.396;2023-12-20T08:15:09;22.23;;;10.68;;
59052;SDS011;44843;44.728;10.396;2023-12-20T08:17:34;18.48;;;9.57;;
59052;SDS011;44843;44.728;10.396;2023-12-20T08:20:00;21.60;;;10.98;;
59052;SDS011;44843;44.728;10.396;2023-12-20T08:22:25;20.40;;;10.52;;
59052;SDS011;44843;44.728;10.396;2023-12-20T08:24:50;18.85;;;9.43;;
59052;SDS011;44843;44.728;10.396;2023-12-20T08:27:16;16.80;;;9.68;;
59052;SDS011;44843;44.728;10.396;2023-12-20T08:29:43;17.20;;;9.15;;
59052;SDS011;44843;44.728;10.396;2023-12-20T08:32:08;17.98;;;8.63;;
59052;SDS011;44843;44.728;10.396;2023-12-20T08:34:33;18.83;;;9.18;;
59052;SDS011;44843;44.728;10.396;2023-12-20T08:36:59;17.92;;;8.05;;
59052;SDS011;44843;44.728;10.396;2023-12-20T08:39:24;21.33;;;11.07;;
59052;SDS011;44843;44.728;10.396;2023-12-20T08:41:49;17.77;;;8.68;;
59052;SDS011;44843;44.728;10.396;2023-12-20T08:44:14;26.63;;;9.10;;
59052;SDS011;44843;44.728;10.396;2023-12-20T08:46:39;12.07;;;7.43;;
59052;SDS011;44843;44.728;10.396;2023-12-20T08:49:05;15.60;;;6.72;;
59052;SDS011;44843;44.728;10.396;2023-12-20T08:51:30;19.40;;;7.50;;
59052;SDS011;44843;44.728;10.396;2023-12-20T08:53:55;11.75;;;6.53;;
59052;SDS011;44843;44.728;10.396;2023-12-20T08:56:20;13.07;;;6.40;;
59052;SDS011;44843;44.728;10.396;2023-12-20T08:58:46;15.82;;;6.07;;
59052;SDS011;44843;44.728;10.396;2023-12-20T09:01:12;11.73;;;6.72;;
59052;SDS011;44843;44.728;10.396;2023-12-20T09:03:37;13.80;;;5.93;;
59052;SDS011;44843;44.728;10.396;2023-12-20T09:06:02;9.27;;;5.63;;
59052;SDS011;44843;44.728;10.396;2023-12-20T09:08:28;12.35;;;6.05;;
59052;SDS011;44843;44.728;10.396;2023-12-20T09:10:53;11.50;;;5.65;;
59052;SDS011;44843;44.728;10.396;2023-12-20T09:13:18;10.45;;;5.95;;
59052;SDS011;44843;44.728;10.396;2023-12-20T09:15:43;7.88;;;4.88;;
59052;SDS011;44843;44.728;10.396;2023-12-20T09:18:09;9.77;;;5.05;;
59052;SDS011;44843;44.728;10.396;2023-12-20T09:20:34;13.95;;;6.15;;
59052;SDS011;44843;44.728;10.396;2023-12-20T09:22:59;15.32;;;6.20;;
59052;SDS011;44843;44.728;10.396;2023-12-20T09:25:24;11.80;;;5.85;;
59052;SDS011;44843;44.728;10.396;2023-12-20T09:27:51;15.90;;;6.28;;
59052;SDS011;44843;44.728;10.396;2023-12-20T09:30:17;9.90;;;6.22;;
59052;SDS011;44843;44.728;10.396;2023-12-20T09:32:42;12.77;;;6.18;;
59052;SDS011;44843;44.728;10.396;2023-12-20T09:35:07;12.45;;;6.18;;
59052;SDS011;44843;44.728;10.396;2023-12-20T09:37:33;11.38;;;5.97;;
59052;SDS011;44843;44.728;10.396;2023-12-20T09:39:59;15.30;;;6.85;;
59052;SDS011;44843;44.728;10.396;2023-12-20T09:44:58;12.02;;;6.65;;
59052;SDS011;44843;44.728;10.396;2023-12-20T09:47:25;15.43;;;7.40;;
59052;SDS011;44843;44.728;10.396;2023-12-20T09:49:51;14.77;;;6.72;;
59052;SDS011;44843;44.728;10.396;2023-12-20T09:52:17;16.98;;;6.68;;
59052;SDS011;44843;44.728;10.396;2023-12-20T09:54:43;14.80;;;7.00;;
59052;SDS011;44843;44.728;10.396;2023-12-20T09:57:09;14.88;;;7.45;;
59052;SDS011;44843;44.728;10.396;2023-12-20T09:59:34;12.00;;;6.55;;
59052;SDS011;44843;44.728;10.396;2023-12-20T10:01:59;13.45;;;6.45;;
59052;SDS011;44843;44.728;10.396;2023-12-20T10:04:26;14.95;;;7.07;;
59052;SDS011;44843;44.728;10.396;2023-12-20T10:06:51;14.38;;;6.90;;
59052;SDS011;44843;44.728;10.396;2023-12-20T10:09:17;13.23;;;6.50;;
59052;SDS011;44843;44.728;10.396;2023-12-20T10:11:42;13.93;;;6.30;;
59052;SDS011;44843;44.728;10.396;2023-12-20T10:14:07;13.98;;;6.43;;
59052;SDS011;44843;44.728;10.396;2023-12-20T10:16:33;8.93;;;5.10;;
59052;SDS011;44843;44.728;10.396;2023-12-20T10:18:59;12.57;;;6.35;;
59052;SDS011;44843;44.728;10.396;2023-12-20T10:21:25;9.10;;;5.10;;
59052;SDS011;44843;44.728;10.396;2023-12-20T10:23:51;8.18;;;5.15;;
59052;SDS011;44843;44.728;10.396;2023-12-20T10:26:24;7.30;;;4.20;;
59052;SDS011;44843;44.728;10.396;2023-12-20T10:29:10;8.35;;;4.43;;
59052;SDS011;44843;44.728;10.396;2023-12-20T10:31:34;8.30;;;4.50;;
59052;SDS011;44843;44.728;10.396;2023-12-20T10:34:00;9.77;;;4.07;;
59052;SDS011;44843;44.728;10.396;2023-12-20T10:36:26;9.57;;;4.03;;
59052;SDS011;44843;44.728;10.396;2023-12-20T10:38:52;8.63;;;4.05;;
59052;SDS011;44843;44.728;10.396;2023-12-20T10:41:18;7.25;;;4.35;;
59052;SDS011;44843;44.728;10.396;2023-12-20T10:43:45;7.80;;;4.50;;
59052;SDS011;44843;44.728;10.396;2023-12-20T10:46:11;10.05;;;4.00;;
59052;SDS011;44843;44.728;10.396;2023-12-20T10:48:37;8.75;;;4.53;;
59052;SDS011;44843;44.728;10.396;2023-12-20T10:51:03;8.05;;;4.57;;
59052;SDS011;44843;44.728;10.396;2023-12-20T10:53:29;6.10;;;3.97;;
59052;SDS011;44843;44.728;10.396;2023-12-20T10:55:55;7.63;;;4.68;;
59052;SDS011;44843;44.728;10.396;2023-12-20T10:58:24;11.77;;;4.43;;
59052;SDS011;44843;44.728;10.396;2023-12-20T11:00:50;7.55;;;4.43;;
59052;SDS011;44843;44.728;10.396;2023-12-20T11:03:21;7.30;;;4.60;;
59052;SDS011;44843;44.728;10.396;2023-12-20T11:08:28;11.52;;;5.30;;
59052;SDS011;44843;44.728;10.396;2023-12-20T11:11:03;8.13;;;4.45;;
59052;SDS011;44843;44.728;10.396;2023-12-20T11:13:32;10.20;;;4.88;;
59052;SDS011;44843;44.728;10.396;2023-12-20T11:15:59;9.80;;;4.88;;
59052;SDS011;44843;44.728;10.396;2023-12-20T11:18:30;11.25;;;4.45;;
59052;SDS011;44843;44.728;10.396;2023-12-20T11:21:00;9.98;;;5.20;;
59052;SDS011;44843;44.728;10.396;2023-12-20T11:23:25;13.95;;;8.50;;
59052;SDS011;44843;44.728;10.396;2023-12-20T11:25:53;15.88;;;7.25;;
59052;SDS011;44843;44.728;10.396;2023-12-20T11:28:23;17.05;;;8.30;;
59052;SDS011;44843;44.728;10.396;2023-12-20T11:30:50;18.83;;;8.57;;
59052;SDS011;44843;44.728;10.396;2023-12-20T11:33:15;18.38;;;8.98;;
59052;SDS011;44843;44.728;10.396;2023-12-20T11:35:41;18.90;;;8.32;;
59052;SDS011;44843;44.728;10.396;2023-12-20T11:38:10;18.80;;;9.15;;
59052;SDS011;44843;44.728;10.396;2023-12-20T11:40:35;15.23;;;8.18;;
59052;SDS011;44843;44.728;10.396;2023-12-20T11:43:00;17.95;;;7.90;;
59052;SDS011;44843;44.728;10.396;2023-12-20T11:45:26;16.05;;;8.18;;
59052;SDS011;44843;44.728;10.396;2023-12-20T11:47:52;14.90;;;8.07;;
59052;SDS011;44843;44.728;10.396;2023-12-20T11:50:20;15.85;;;8.15;;
59052;SDS011;44843;44.728;10.396;2023-12-20T11:52:46;16.90;;;8.82;;
59052;SDS011;44843;44.728;10.396;2023-12-20T11:55:11;16.90;;;8.85;;
59052;SDS011;44843;44.728;10.396;2023-12-20T11:57:37;15.07;;;8.80;;
59052;SDS011;44843;44.728;10.396;2023-12-20T12:00:03;15.93;;;8.30;;
59052;SDS011;44843;44.728;10.396;2023-12-20T12:02:28;18.30;;;9.13;;
59052;SDS011;44843;44.728;10.396;2023-12-20T12:04:54;14.65;;;9.30;;
59052;SDS011;44843;44.728;10.396;2023-12-20T12:07:21;21.45;;;8.65;;
59052;SDS011;44843;44.728;10.396;2023-12-20T12:09:46;19.10;;;9.52;;
59052;SDS011;44843;44.728;10.396;2023-12-20T12:12:12;13.32;;;8.98;;
59052;SDS011;44843;44.728;10.396;2023-12-20T12:14:38;15.18;;;8.68;;
59052;SDS011;44843;44.728;10.396;2023-12-20T12:17:03;29.77;;;10.77;;
59052;SDS011;44843;44.728;10.396;2023-12-20T12:19:29;18.10;;;9.35;;
59052;SDS011;44843;44.728;10.396;2023-12-20T12:22:06;18.38;;;9.25;;
59052;SDS011;44843;44.728;10.396;2023-12-20T12:24:47;16.83;;;8.50;;
59052;SDS011;44843;44.728;10.396;2023-12-20T12:27:13;19.48;;;9.27;;
59052;SDS011;44843;44.728;10.396;2023-12-20T12:29:38;14.38;;;8.00;;
59052;SDS011;44843;44.728;10.396;2023-12-20T12:32:04;16.40;;;9.15;;
59052;SDS011;44843;44.728;10.396;2023-12-20T12:34:30;18.00;;;9.07;;
59052;SDS011;44843;44.728;10.396;2023-12-20T12:36:56;20.33;;;9.20;;
59052;SDS011;44843;44.728;10.396;2023-12-20T12:39:22;15.20;;;8.63;;
59052;SDS011;44843;44.728;10.396;2023-12-20T12:41:48;17.77;;;8.55;;
59052;SDS011;44843;44.728;10.396;2023-12-20T12:44:14;18.95;;;9.43;;
59052;SDS011;44843;44.728;10.396;2023-12-20T12:46:39;16.23;;;8.98;;
59052;SDS011;44843;44.728;10.396;2023-12-20T12:49:04;20.90;;;9.02;;
59052;SDS011;44843;44.728;10.396;2023-12-20T12:51:29;18.67;;;9.05;;
59052;SDS011;44843;44.728;10.396;2023-12-20T12:53:54;18.00;;;8.95;;
59052;SDS011;44843;44.728;10.396;2023-12-20T12:56:20;17.83;;;8.23;;
59052;SDS011;44843;44.728;10.396;2023-12-20T12:58:46;15.45;;;8.07;;
59052;SDS011;44843;44.728;10.396;2023-12-20T13:01:11;20.65;;;8.55;;
59052;SDS011;44843;44.728;10.396;2023-12-20T13:03:37;19.25;;;8.80;;
59052;SDS011;44843;44.728;10.396;2023-12-20T13:06:02;18.85;;;8.35;;
59052;SDS011;44843;44.728;10.396;2023-12-20T13:08:28;16.02;;;9.27;;
59052;SDS011;44843;44.728;10.396;2023-12-20T13:10:53;13.18;;;8.75;;
59052;SDS011;44843;44.728;10.396;2023-12-20T13:13:19;15.15;;;9.07;;
59052;SDS011;44843;44.728;10.396;2023-12-20T13:15:44;16.45;;;9.18;;
59052;SDS011;44843;44.728;10.396;2023-12-20T13:18:15;19.55;;;9.75;;
59052;SDS011;44843;44.728;10.396;2023-12-20T13:20:41;15.57;;;9.93;;
59052;SDS011;44843;44.728;10.396;2023-12-20T13:23:06;18.20;;;9.35;;
59052;SDS011;44843;44.728;10.396;2023-12-20T13:25:31;16.40;;;8.98;;
59052;SDS011;44843;44.728;10.396;2023-12-20T13:27:56;23.85;;;9.52;;
59052;SDS011;44843;44.728;10.396;2023-12-20T13:30:21;21.70;;;9.35;;
59052;SDS011;44843;44.728;10.396;2023-12-20T13:32:47;18.50;;;9.80;;
59052;SDS011;44843;44.728;10.396;2023-12-20T13:35:12;20.30;;;9.48;;
59052;SDS011;44843;44.728;10.396;2023-12-20T13:37:38;21.63;;;10.02;;
59052;SDS011;44843;44.728;10.396;2023-12-20T13:40:03;17.58;;;9.75;;
59052;SDS011;44843;44.728;10.396;2023-12-20T13:42:29;21.20;;;9.70;;
59052;SDS011;44843;44.728;10.396;2023-12-20T13:44:54;14.57;;;9.05;;
59052;SDS011;44843;44.728;10.396;2023-12-20T13:47:20;18.23;;;10.45;;
59052;SDS011;44843;44.728;10.396;2023-12-20T13:49:46;16.38;;;9.27;;
59052;SDS011;44843;44.728;10.396;2023-12-20T13:52:11;16.48;;;9.50;;
59052;SDS011;44843;44.728;10.396;2023-12-20T13:54:37;16.80;;;8.70;;
59052;SDS011;44843;44.728;10.396;2023-12-20T13:57:02;17.80;;;9.25;;
59052;SDS011;44843;44.728;10.396;2023-12-20T13:59:28;21.38;;;10.82;;
59052;SDS011;44843;44.728;10.396;2023-12-20T14:01:53;19.20;;;9.95;;
59052;SDS011;44843;44.728;10.396;2023-12-20T14:04:18;16.98;;;9.77;;
59052;SDS011;44843;44.728;10.396;2023-12-20T14:06:43;15.65;;;9.88;;
59052;SDS011;44843;44.728;10.396;2023-12-20T14:09:09;17.65;;;9.93;;
59052;SDS011;44843;44.728;10.396;2023-12-20T14:11:36;17.65;;;9.43;;
59052;SDS011;44843;44.728;10.396;2023-12-20T14:14:06;20.13;;;9.32;;
59052;SDS011;44843;44.728;10.396;2023-12-20T14:16:32;19.65;;;9.82;;
59052;SDS011;44843;44.728;10.396;2023-12-20T14:18:58;19.17;;;10.07;;
59052;SDS011;44843;44.728;10.396;2023-12-20T14:21:23;20.33;;;9.70;;
59052;SDS011;44843;44.728;10.396;2023-12-20T14:23:49;14.18;;;9.10;;